< < Back
Terminal Aerodrome Forecast


Current Version              Previous Versions:   1  2  3  4  5  6  7  8  9  

Terminal Aerodrome Forecast

942
FTUS42 KFFC 251731
TAFCSG
TAF
KCSG 251731Z 2518/2618 20006KT P6SM SCT015 BKN030
     FM252000 22008G16KT P6SM SCT025 BKN050
      TEMPO 2522/2602 VRB12G22KT 3SM TSRA BKN020CB
     FM260200 23008KT P6SM BKN040
     FM260800 24008KT 3SM BR BKN012 BKN035
     FM261300 28010KT P6SM BKN020
     FM261600 29012G22KT P6SM BKN045=

Latest METAR

735
SAUS70 KWBC 260100
MTRCSG
METAR KCSG 260051Z AUTO 00000KT 10SM CLR 21/18 A2970 RMK AO2 SLP053
T02060183


USA.gov is the U.S. government's official web portal to all federal, state and local government web resources and services.